sensor_id;sensor_type;location;lat;lon;timestamp;P1;durP1;ratioP1;P2;durP2;ratioP2
83807;SDS011;73824;40.292;17.998;2024-03-06T00:02:04;23.35;;;11.68;;
83807;SDS011;73824;40.292;17.998;2024-03-06T00:04:32;27.13;;;12.57;;
83807;SDS011;73824;40.292;17.998;2024-03-06T00:06:58;27.70;;;12.80;;
83807;SDS011;73824;40.292;17.998;2024-03-06T00:09:24;24.03;;;12.00;;
83807;SDS011;73824;40.292;17.998;2024-03-06T00:11:53;27.52;;;12.77;;
83807;SDS011;73824;40.292;17.998;2024-03-06T00:14:19;27.63;;;12.63;;
83807;SDS011;73824;40.292;17.998;2024-03-06T00:16:46;25.02;;;12.13;;
83807;SDS011;73824;40.292;17.998;2024-03-06T00:19:12;28.67;;;13.45;;
83807;SDS011;73824;40.292;17.998;2024-03-06T00:21:38;29.40;;;13.13;;
83807;SDS011;73824;40.292;17.998;2024-03-06T00:24:04;29.42;;;13.95;;
83807;SDS011;73824;40.292;17.998;2024-03-06T00:26:30;28.43;;;12.97;;
83807;SDS011;73824;40.292;17.998;2024-03-06T00:28:56;29.40;;;13.18;;
83807;SDS011;73824;40.292;17.998;2024-03-06T00:31:21;25.73;;;12.07;;
83807;SDS011;73824;40.292;17.998;2024-03-06T00:33:47;25.43;;;12.70;;
83807;SDS011;73824;40.292;17.998;2024-03-06T00:36:13;25.08;;;11.98;;
83807;SDS011;73824;40.292;17.998;2024-03-06T00:38:38;27.20;;;13.43;;
83807;SDS011;73824;40.292;17.998;2024-03-06T00:41:04;30.00;;;13.52;;
83807;SDS011;73824;40.292;17.998;2024-03-06T00:43:29;30.67;;;12.63;;
83807;SDS011;73824;40.292;17.998;2024-03-06T00:45:55;30.23;;;12.67;;
83807;SDS011;73824;40.292;17.998;2024-03-06T00:48:21;27.45;;;12.95;;
83807;SDS011;73824;40.292;17.998;2024-03-06T00:50:46;29.67;;;13.87;;
83807;SDS011;73824;40.292;17.998;2024-03-06T00:53:12;30.83;;;14.10;;
83807;SDS011;73824;40.292;17.998;2024-03-06T00:55:37;26.50;;;13.32;;
83807;SDS011;73824;40.292;17.998;2024-03-06T00:58:03;32.30;;;14.73;;
83807;SDS011;73824;40.292;17.998;2024-03-06T01:00:29;30.30;;;14.60;;
83807;SDS011;73824;40.292;17.998;2024-03-06T01:02:55;32.35;;;13.23;;
83807;SDS011;73824;40.292;17.998;2024-03-06T01:05:20;26.57;;;12.93;;
83807;SDS011;73824;40.292;17.998;2024-03-06T01:07:46;26.85;;;13.20;;
83807;SDS011;73824;40.292;17.998;2024-03-06T01:10:12;27.63;;;13.80;;
83807;SDS011;73824;40.292;17.998;2024-03-06T01:12:38;28.98;;;13.43;;
83807;SDS011;73824;40.292;17.998;2024-03-06T01:15:03;27.98;;;12.55;;
83807;SDS011;73824;40.292;17.998;2024-03-06T01:17:29;28.15;;;12.82;;
83807;SDS011;73824;40.292;17.998;2024-03-06T01:19:55;26.98;;;13.05;;
83807;SDS011;73824;40.292;17.998;2024-03-06T01:22:20;27.47;;;12.50;;
83807;SDS011;73824;40.292;17.998;2024-03-06T01:24:46;27.97;;;12.83;;
83807;SDS011;73824;40.292;17.998;2024-03-06T01:27:16;32.75;;;13.20;;
83807;SDS011;73824;40.292;17.998;2024-03-06T01:29:41;28.90;;;13.32;;
83807;SDS011;73824;40.292;17.998;2024-03-06T01:32:07;28.80;;;13.55;;
83807;SDS011;73824;40.292;17.998;2024-03-06T01:34:35;29.93;;;14.17;;
83807;SDS011;73824;40.292;17.998;2024-03-06T01:37:01;30.55;;;14.90;;
83807;SDS011;73824;40.292;17.998;2024-03-06T01:39:26;31.03;;;15.23;;
83807;SDS011;73824;40.292;17.998;2024-03-06T01:41:52;31.83;;;14.88;;
83807;SDS011;73824;40.292;17.998;2024-03-06T01:44:17;31.50;;;15.07;;
83807;SDS011;73824;40.292;17.998;2024-03-06T01:46:43;33.30;;;15.13;;
83807;SDS011;73824;40.292;17.998;2024-03-06T01:49:10;28.60;;;15.23;;
83807;SDS011;73824;40.292;17.998;2024-03-06T01:51:38;29.33;;;14.88;;
83807;SDS011;73824;40.292;17.998;2024-03-06T01:54:04;31.80;;;15.48;;
83807;SDS011;73824;40.292;17.998;2024-03-06T01:56:33;35.03;;;16.35;;
83807;SDS011;73824;40.292;17.998;2024-03-06T01:59:00;29.17;;;15.23;;
83807;SDS011;73824;40.292;17.998;2024-03-06T02:09:12;31.02;;;15.10;;
83807;SDS011;73824;40.292;17.998;2024-03-06T02:11:41;32.28;;;15.43;;
83807;SDS011;73824;40.292;17.998;2024-03-06T02:14:07;32.87;;;15.83;;
83807;SDS011;73824;40.292;17.998;2024-03-06T02:16:35;31.13;;;15.77;;
83807;SDS011;73824;40.292;17.998;2024-03-06T02:19:04;27.23;;;14.07;;
83807;SDS011;73824;40.292;17.998;2024-03-06T02:21:30;32.53;;;14.55;;
83807;SDS011;73824;40.292;17.998;2024-03-06T02:23:55;26.98;;;13.73;;
83807;SDS011;73824;40.292;17.998;2024-03-06T02:26:21;26.73;;;12.77;;
83807;SDS011;73824;40.292;17.998;2024-03-06T02:28:47;25.60;;;14.35;;
83807;SDS011;73824;40.292;17.998;2024-03-06T02:31:14;28.27;;;13.45;;
83807;SDS011;73824;40.292;17.998;2024-03-06T02:33:40;29.52;;;14.63;;
83807;SDS011;73824;40.292;17.998;2024-03-06T02:36:05;28.67;;;14.70;;
83807;SDS011;73824;40.292;17.998;2024-03-06T02:38:31;27.93;;;13.80;;
83807;SDS011;73824;40.292;17.998;2024-03-06T02:40:57;25.30;;;13.57;;
83807;SDS011;73824;40.292;17.998;2024-03-06T02:43:22;23.17;;;12.60;;
83807;SDS011;73824;40.292;17.998;2024-03-06T02:45:47;23.37;;;11.47;;
83807;SDS011;73824;40.292;17.998;2024-03-06T02:48:13;21.73;;;11.93;;
83807;SDS011;73824;40.292;17.998;2024-03-06T02:50:39;23.20;;;11.77;;
83807;SDS011;73824;40.292;17.998;2024-03-06T02:53:04;22.50;;;11.83;;
83807;SDS011;73824;40.292;17.998;2024-03-06T02:55:30;21.77;;;11.47;;
83807;SDS011;73824;40.292;17.998;2024-03-06T02:57:55;21.77;;;11.23;;
83807;SDS011;73824;40.292;17.998;2024-03-06T03:00:21;24.90;;;12.07;;
83807;SDS011;73824;40.292;17.998;2024-03-06T03:02:47;24.83;;;11.63;;
83807;SDS011;73824;40.292;17.998;2024-03-06T03:05:12;24.30;;;11.40;;
83807;SDS011;73824;40.292;17.998;2024-03-06T03:07:38;27.10;;;12.40;;
83807;SDS011;73824;40.292;17.998;2024-03-06T03:10:03;27.02;;;11.80;;
83807;SDS011;73824;40.292;17.998;2024-03-06T03:12:29;26.93;;;12.87;;
83807;SDS011;73824;40.292;17.998;2024-03-06T03:14:55;25.88;;;12.13;;
83807;SDS011;73824;40.292;17.998;2024-03-06T03:17:20;27.60;;;12.50;;
83807;SDS011;73824;40.292;17.998;2024-03-06T03:19:46;30.57;;;12.47;;
83807;SDS011;73824;40.292;17.998;2024-03-06T03:22:11;27.73;;;10.48;;
83807;SDS011;73824;40.292;17.998;2024-03-06T03:24:38;24.63;;;11.07;;
83807;SDS011;73824;40.292;17.998;2024-03-06T03:27:06;24.73;;;11.53;;
83807;SDS011;73824;40.292;17.998;2024-03-06T03:29:32;23.50;;;10.57;;
83807;SDS011;73824;40.292;17.998;2024-03-06T03:31:58;24.90;;;11.85;;
83807;SDS011;73824;40.292;17.998;2024-03-06T03:34:23;25.93;;;12.03;;
83807;SDS011;73824;40.292;17.998;2024-03-06T03:36:49;23.83;;;11.67;;
83807;SDS011;73824;40.292;17.998;2024-03-06T03:39:15;24.83;;;12.38;;
83807;SDS011;73824;40.292;17.998;2024-03-06T03:41:44;23.53;;;11.50;;
83807;SDS011;73824;40.292;17.998;2024-03-06T03:44:14;23.45;;;12.13;;
83807;SDS011;73824;40.292;17.998;2024-03-06T03:46:46;23.80;;;12.05;;
83807;SDS011;73824;40.292;17.998;2024-03-06T03:49:12;22.03;;;11.60;;
83807;SDS011;73824;40.292;17.998;2024-03-06T03:51:38;25.92;;;12.27;;
83807;SDS011;73824;40.292;17.998;2024-03-06T03:54:04;20.95;;;12.35;;
83807;SDS011;73824;40.292;17.998;2024-03-06T03:56:30;22.50;;;12.90;;
83807;SDS011;73824;40.292;17.998;2024-03-06T03:58:57;24.08;;;12.73;;
83807;SDS011;73824;40.292;17.998;2024-03-06T04:01:23;23.58;;;12.20;;
83807;SDS011;73824;40.292;17.998;2024-03-06T04:03:49;21.23;;;12.35;;
83807;SDS011;73824;40.292;17.998;2024-03-06T04:06:16;21.40;;;12.13;;
83807;SDS011;73824;40.292;17.998;2024-03-06T04:08:41;22.73;;;12.77;;
83807;SDS011;73824;40.292;17.998;2024-03-06T04:11:07;25.02;;;12.35;;
83807;SDS011;73824;40.292;17.998;2024-03-06T04:13:37;21.60;;;12.00;;
83807;SDS011;73824;40.292;17.998;2024-03-06T04:16:03;21.95;;;11.32;;
83807;SDS011;73824;40.292;17.998;2024-03-06T04:18:30;19.50;;;10.70;;
83807;SDS011;73824;40.292;17.998;2024-03-06T04:21:05;23.15;;;11.45;;
83807;SDS011;73824;40.292;17.998;2024-03-06T04:23:31;19.38;;;10.48;;
83807;SDS011;73824;40.292;17.998;2024-03-06T04:25:58;17.13;;;8.70;;
83807;SDS011;73824;40.292;17.998;2024-03-06T04:28:23;16.27;;;8.77;;
83807;SDS011;73824;40.292;17.998;2024-03-06T04:30:49;17.77;;;9.03;;
83807;SDS011;73824;40.292;17.998;2024-03-06T04:33:14;16.10;;;8.75;;
83807;SDS011;73824;40.292;17.998;2024-03-06T04:35:40;19.23;;;9.10;;
83807;SDS011;73824;40.292;17.998;2024-03-06T04:38:06;17.55;;;8.40;;
83807;SDS011;73824;40.292;17.998;2024-03-06T04:40:32;16.52;;;8.60;;
83807;SDS011;73824;40.292;17.998;2024-03-06T04:42:59;16.70;;;8.37;;
83807;SDS011;73824;40.292;17.998;2024-03-06T04:45:25;16.95;;;9.05;;
83807;SDS011;73824;40.292;17.998;2024-03-06T04:47:50;20.37;;;9.50;;
83807;SDS011;73824;40.292;17.998;2024-03-06T04:50:16;23.48;;;9.88;;
83807;SDS011;73824;40.292;17.998;2024-03-06T04:52:42;20.87;;;10.03;;
83807;SDS011;73824;40.292;17.998;2024-03-06T04:55:09;19.80;;;8.68;;
83807;SDS011;73824;40.292;17.998;2024-03-06T04:57:36;17.33;;;8.27;;
83807;SDS011;73824;40.292;17.998;2024-03-06T05:00:02;14.85;;;7.68;;
83807;SDS011;73824;40.292;17.998;2024-03-06T05:02:32;17.43;;;8.27;;
83807;SDS011;73824;40.292;17.998;2024-03-06T05:05:01;18.48;;;9.15;;
83807;SDS011;73824;40.292;17.998;2024-03-06T05:07:28;17.52;;;8.77;;
83807;SDS011;73824;40.292;17.998;2024-03-06T05:09:54;17.90;;;9.27;;
83807;SDS011;73824;40.292;17.998;2024-03-06T05:12:21;19.52;;;9.48;;
83807;SDS011;73824;40.292;17.998;2024-03-06T05:14:46;21.87;;;11.20;;
83807;SDS011;73824;40.292;17.998;2024-03-06T05:17:12;22.63;;;12.73;;
83807;SDS011;73824;40.292;17.998;2024-03-06T05:19:37;22.52;;;11.95;;
83807;SDS011;73824;40.292;17.998;2024-03-06T05:22:03;23.43;;;10.53;;
83807;SDS011;73824;40.292;17.998;2024-03-06T05:24:29;20.63;;;11.33;;
83807;SDS011;73824;40.292;17.998;2024-03-06T05:26:55;21.52;;;10.80;;
83807;SDS011;73824;40.292;17.998;2024-03-06T05:29:20;19.27;;;9.77;;
83807;SDS011;73824;40.292;17.998;2024-03-06T05:31:46;18.13;;;9.75;;
83807;SDS011;73824;40.292;17.998;2024-03-06T05:34:11;20.23;;;10.53;;
83807;SDS011;73824;40.292;17.998;2024-03-06T05:36:37;19.40;;;8.87;;
83807;SDS011;73824;40.292;17.998;2024-03-06T05:39:02;18.70;;;7.75;;
83807;SDS011;73824;40.292;17.998;2024-03-06T05:41:32;26.90;;;7.87;;
83807;SDS011;73824;40.292;17.998;2024-03-06T05:43:58;26.08;;;8.30;;
83807;SDS011;73824;40.292;17.998;2024-03-06T05:46:24;26.42;;;8.98;;
83807;SDS011;73824;40.292;17.998;2024-03-06T05:48:50;37.28;;;8.63;;
83807;SDS011;73824;40.292;17.998;2024-03-06T05:51:16;33.65;;;10.60;;
83807;SDS011;73824;40.292;17.998;2024-03-06T05:53:42;36.23;;;10.23;;
83807;SDS011;73824;40.292;17.998;2024-03-06T05:56:08;28.15;;;10.65;;
83807;SDS011;73824;40.292;17.998;2024-03-06T05:58:34;47.22;;;12.02;;
83807;SDS011;73824;40.292;17.998;2024-03-06T06:01:00;32.10;;;10.97;;
83807;SDS011;73824;40.292;17.998;2024-03-06T06:03:29;50.03;;;12.52;;
83807;SDS011;73824;40.292;17.998;2024-03-06T06:05:55;25.65;;;11.07;;
83807;SDS011;73824;40.292;17.998;2024-03-06T06:08:21;28.00;;;10.77;;
83807;SDS011;73824;40.292;17.998;2024-03-06T06:10:46;30.13;;;13.05;;
83807;SDS011;73824;40.292;17.998;2024-03-06T06:13:12;27.43;;;12.20;;
83807;SDS011;73824;40.292;17.998;2024-03-06T06:15:37;24.97;;;12.67;;
83807;SDS011;73824;40.292;17.998;2024-03-06T06:18:03;25.45;;;12.48;;
83807;SDS011;73824;40.292;17.998;2024-03-06T06:20:29;26.42;;;12.93;;
83807;SDS011;73824;40.292;17.998;2024-03-06T06:22:55;27.15;;;12.73;;
83807;SDS011;73824;40.292;17.998;2024-03-06T06:25:20;26.23;;;13.03;;
83807;SDS011;73824;40.292;17.998;2024-03-06T06:27:46;25.35;;;12.70;;
83807;SDS011;73824;40.292;17.998;2024-03-06T06:30:13;23.57;;;11.73;;
83807;SDS011;73824;40.292;17.998;2024-03-06T06:32:42;29.88;;;14.32;;
83807;SDS011;73824;40.292;17.998;2024-03-06T06:35:08;31.75;;;15.70;;
83807;SDS011;73824;40.292;17.998;2024-03-06T06:37:38;31.80;;;14.43;;
83807;SDS011;73824;40.292;17.998;2024-03-06T06:40:08;24.13;;;11.88;;
83807;SDS011;73824;40.292;17.998;2024-03-06T06:42:34;20.58;;;11.40;;
83807;SDS011;73824;40.292;17.998;2024-03-06T06:45:03;22.40;;;13.98;;
83807;SDS011;73824;40.292;17.998;2024-03-06T06:47:31;26.13;;;14.35;;
83807;SDS011;73824;40.292;17.998;2024-03-06T06:49:57;23.80;;;12.20;;
83807;SDS011;73824;40.292;17.998;2024-03-06T06:52:22;31.50;;;15.90;;
83807;SDS011;73824;40.292;17.998;2024-03-06T06:54:48;32.70;;;18.33;;
83807;SDS011;73824;40.292;17.998;2024-03-06T06:57:15;31.55;;;18.25;;
83807;SDS011;73824;40.292;17.998;2024-03-06T06:59:40;30.20;;;18.60;;
83807;SDS011;73824;40.292;17.998;2024-03-06T07:02:06;35.70;;;21.20;;
83807;SDS011;73824;40.292;17.998;2024-03-06T07:04:31;43.07;;;24.40;;
83807;SDS011;73824;40.292;17.998;2024-03-06T07:06:57;37.33;;;22.03;;
83807;SDS011;73824;40.292;17.998;2024-03-06T07:09:22;30.93;;;18.07;;
83807;SDS011;73824;40.292;17.998;2024-03-06T07:11:48;28.70;;;18.08;;
83807;SDS011;73824;40.292;17.998;2024-03-06T07:14:14;22.92;;;14.40;;
83807;SDS011;73824;40.292;17.998;2024-03-06T07:16:46;23.60;;;15.32;;
83807;SDS011;73824;40.292;17.998;2024-03-06T07:19:12;23.63;;;16.75;;
83807;SDS011;73824;40.292;17.998;2024-03-06T07:21:38;25.42;;;16.65;;
83807;SDS011;73824;40.292;17.998;2024-03-06T07:24:04;22.53;;;16.53;;
83807;SDS011;73824;40.292;17.998;2024-03-06T07:26:33;22.70;;;15.15;;
83807;SDS011;73824;40.292;17.998;2024-03-06T07:28:59;20.88;;;14.40;;
83807;SDS011;73824;40.292;17.998;2024-03-06T07:31:25;20.48;;;13.77;;
83807;SDS011;73824;40.292;17.998;2024-03-06T07:33:50;19.40;;;13.00;;
83807;SDS011;73824;40.292;17.998;2024-03-06T07:36:16;22.42;;;14.20;;
83807;SDS011;73824;40.292;17.998;2024-03-06T07:38:42;19.63;;;13.00;;
83807;SDS011;73824;40.292;17.998;2024-03-06T07:41:08;19.60;;;12.57;;
83807;SDS011;73824;40.292;17.998;2024-03-06T07:43:35;17.10;;;13.68;;
83807;SDS011;73824;40.292;17.998;2024-03-06T07:46:00;21.17;;;13.40;;
83807;SDS011;73824;40.292;17.998;2024-03-06T07:48:26;19.33;;;12.83;;
83807;SDS011;73824;40.292;17.998;2024-03-06T07:50:51;18.33;;;12.98;;
83807;SDS011;73824;40.292;17.998;2024-03-06T07:53:16;20.70;;;13.40;;
83807;SDS011;73824;40.292;17.998;2024-03-06T07:55:42;19.07;;;12.77;;
83807;SDS011;73824;40.292;17.998;2024-03-06T07:58:08;16.90;;;11.63;;
83807;SDS011;73824;40.292;17.998;2024-03-06T08:00:34;15.40;;;10.50;;
83807;SDS011;73824;40.292;17.998;2024-03-06T08:03:00;17.00;;;9.13;;
83807;SDS011;73824;40.292;17.998;2024-03-06T08:05:26;16.33;;;9.60;;
83807;SDS011;73824;40.292;17.998;2024-03-06T08:07:53;15.60;;;9.35;;
83807;SDS011;73824;40.292;17.998;2024-03-06T08:10:18;16.80;;;8.83;;
83807;SDS011;73824;40.292;17.998;2024-03-06T08:12:44;14.80;;;8.67;;
83807;SDS011;73824;40.292;17.998;2024-03-06T08:15:11;14.48;;;8.65;;
83807;SDS011;73824;40.292;17.998;2024-03-06T08:17:41;15.07;;;9.00;;
83807;SDS011;73824;40.292;17.998;2024-03-06T08:20:09;13.70;;;9.02;;
83807;SDS011;73824;40.292;17.998;2024-03-06T08:22:35;15.38;;;9.70;;
83807;SDS011;73824;40.292;17.998;2024-03-06T08:25:07;13.57;;;8.73;;
83807;SDS011;73824;40.292;17.998;2024-03-06T08:27:35;13.95;;;9.65;;
83807;SDS011;73824;40.292;17.998;2024-03-06T08:30:03;15.57;;;9.95;;
83807;SDS011;73824;40.292;17.998;2024-03-06T08:32:32;16.00;;;9.20;;
83807;SDS011;73824;40.292;17.998;2024-03-06T08:35:00;15.15;;;9.30;;
83807;SDS011;73824;40.292;17.998;2024-03-06T08:37:27;15.75;;;8.57;;
83807;SDS011;73824;40.292;17.998;2024-03-06T08:39:53;17.42;;;8.55;;
83807;SDS011;73824;40.292;17.998;2024-03-06T08:42:18;13.43;;;7.40;;
83807;SDS011;73824;40.292;17.998;2024-03-06T08:44:44;14.23;;;8.77;;
83807;SDS011;73824;40.292;17.998;2024-03-06T08:47:10;14.30;;;8.85;;
83807;SDS011;73824;40.292;17.998;2024-03-06T08:49:36;13.98;;;8.43;;
83807;SDS011;73824;40.292;17.998;2024-03-06T08:52:02;13.90;;;7.87;;
83807;SDS011;73824;40.292;17.998;2024-03-06T08:54:27;10.57;;;7.57;;
83807;SDS011;73824;40.292;17.998;2024-03-06T08:56:55;14.80;;;7.55;;
83807;SDS011;73824;40.292;17.998;2024-03-06T08:59:23;13.05;;;8.02;;
83807;SDS011;73824;40.292;17.998;2024-03-06T09:01:51;14.93;;;9.10;;
83807;SDS011;73824;40.292;17.998;2024-03-06T09:04:17;13.90;;;8.35;;
83807;SDS011;73824;40.292;17.998;2024-03-06T09:06:43;15.43;;;8.73;;
83807;SDS011;73824;40.292;17.998;2024-03-06T09:09:08;16.27;;;9.97;;
83807;SDS011;73824;40.292;17.998;2024-03-06T09:11:34;12.43;;;8.52;;
83807;SDS011;73824;40.292;17.998;2024-03-06T09:14:00;12.07;;;7.47;;
83807;SDS011;73824;40.292;17.998;2024-03-06T09:16:26;15.40;;;8.80;;
83807;SDS011;73824;40.292;17.998;2024-03-06T09:18:51;13.65;;;8.43;;
83807;SDS011;73824;40.292;17.998;2024-03-06T09:21:17;13.93;;;6.77;;
83807;SDS011;73824;40.292;17.998;2024-03-06T09:23:42;9.68;;;6.50;;
83807;SDS011;73824;40.292;17.998;2024-03-06T09:26:08;9.37;;;6.00;;
83807;SDS011;73824;40.292;17.998;2024-03-06T09:28:33;10.13;;;6.07;;
83807;SDS011;73824;40.292;17.998;2024-03-06T09:30:59;10.40;;;5.97;;
83807;SDS011;73824;40.292;17.998;2024-03-06T09:33:26;11.05;;;6.07;;
83807;SDS011;73824;40.292;17.998;2024-03-06T09:35:51;11.63;;;5.97;;
83807;SDS011;73824;40.292;17.998;2024-03-06T09:38:17;11.10;;;6.03;;
83807;SDS011;73824;40.292;17.998;2024-03-06T09:40:42;10.43;;;5.77;;
83807;SDS011;73824;40.292;17.998;2024-03-06T09:43:08;11.07;;;6.47;;
83807;SDS011;73824;40.292;17.998;2024-03-06T09:45:34;11.25;;;5.90;;
83807;SDS011;73824;40.292;17.998;2024-03-06T09:48:00;11.35;;;5.90;;
83807;SDS011;73824;40.292;17.998;2024-03-06T09:50:26;12.23;;;6.63;;
83807;SDS011;73824;40.292;17.998;2024-03-06T09:52:59;11.52;;;6.35;;
83807;SDS011;73824;40.292;17.998;2024-03-06T09:55:26;10.77;;;5.53;;
83807;SDS011;73824;40.292;17.998;2024-03-06T09:57:52;10.25;;;5.38;;
83807;SDS011;73824;40.292;17.998;2024-03-06T10:00:18;13.70;;;5.77;;
83807;SDS011;73824;40.292;17.998;2024-03-06T10:02:54;10.18;;;5.20;;
83807;SDS011;73824;40.292;17.998;2024-03-06T10:05:24;10.32;;;5.07;;
83807;SDS011;73824;40.292;17.998;2024-03-06T10:07:50;11.33;;;5.90;;
83807;SDS011;73824;40.292;17.998;2024-03-06T10:10:18;10.85;;;5.63;;
83807;SDS011;73824;40.292;17.998;2024-03-06T10:12:45;10.23;;;5.07;;
83807;SDS011;73824;40.292;17.998;2024-03-06T10:15:13;10.98;;;5.18;;
83807;SDS011;73824;40.292;17.998;2024-03-06T10:17:39;12.97;;;5.63;;
83807;SDS011;73824;40.292;17.998;2024-03-06T10:20:17;12.30;;;5.68;;
83807;SDS011;73824;40.292;17.998;2024-03-06T10:22:45;10.27;;;4.90;;
83807;SDS011;73824;40.292;17.998;2024-03-06T10:25:14;10.98;;;5.05;;
83807;SDS011;73824;40.292;17.998;2024-03-06T10:27:40;12.63;;;5.72;;
83807;SDS011;73824;40.292;17.998;2024-03-06T10:30:05;13.77;;;5.63;;
83807;SDS011;73824;40.292;17.998;2024-03-06T10:32:36;12.25;;;5.57;;
83807;SDS011;73824;40.292;17.998;2024-03-06T10:35:01;17.73;;;7.20;;
83807;SDS011;73824;40.292;17.998;2024-03-06T10:37:28;15.23;;;6.03;;
83807;SDS011;73824;40.292;17.998;2024-03-06T10:39:54;13.40;;;5.60;;
83807;SDS011;73824;40.292;17.998;2024-03-06T10:42:23;11.68;;;5.65;;
83807;SDS011;73824;40.292;17.998;2024-03-06T10:44:53;11.15;;;5.43;;
83807;SDS011;73824;40.292;17.998;2024-03-06T10:47:24;12.30;;;5.05;;
83807;SDS011;73824;40.292;17.998;2024-03-06T10:49:51;11.23;;;5.00;;
83807;SDS011;73824;40.292;17.998;2024-03-06T10:52:19;12.60;;;5.10;;
83807;SDS011;73824;40.292;17.998;2024-03-06T10:54:44;9.80;;;4.32;;
83807;SDS011;73824;40.292;17.998;2024-03-06T10:57:14;9.82;;;4.20;;
83807;SDS011;73824;40.292;17.998;2024-03-06T10:59:40;10.00;;;4.30;;
83807;SDS011;73824;40.292;17.998;2024-03-06T11:02:07;10.52;;;4.53;;
83807;SDS011;73824;40.292;17.998;2024-03-06T11:04:34;11.03;;;4.03;;
83807;SDS011;73824;40.292;17.998;2024-03-06T11:07:03;10.35;;;4.15;;
83807;SDS011;73824;40.292;17.998;2024-03-06T11:09:36;9.48;;;4.40;;
83807;SDS011;73824;40.292;17.998;2024-03-06T11:12:05;8.48;;;3.70;;
83807;SDS011;73824;40.292;17.998;2024-03-06T11:14:32;9.40;;;3.05;;
83807;SDS011;73824;40.292;17.998;2024-03-06T11:17:02;7.43;;;3.20;;
83807;SDS011;73824;40.292;17.998;2024-03-06T11:19:32;9.05;;;3.40;;
83807;SDS011;73824;40.292;17.998;2024-03-06T11:22:18;8.82;;;2.97;;
83807;SDS011;73824;40.292;17.998;2024-03-06T11:24:43;7.90;;;2.83;;
83807;SDS011;73824;40.292;17.998;2024-03-06T11:27:09;8.65;;;3.13;;
83807;SDS011;73824;40.292;17.998;2024-03-06T11:32:36;9.00;;;3.15;;
83807;SDS011;73824;40.292;17.998;2024-03-06T11:35:03;7.57;;;2.65;;
83807;SDS011;73824;40.292;17.998;2024-03-06T11:37:33;9.40;;;2.80;;
83807;SDS011;73824;40.292;17.998;2024-03-06T11:40:01;8.75;;;2.90;;
83807;SDS011;73824;40.292;17.998;2024-03-06T11:42:33;9.75;;;3.85;;
83807;SDS011;73824;40.292;17.998;2024-03-06T11:45:12;13.02;;;6.05;;
83807;SDS011;73824;40.292;17.998;2024-03-06T11:50:27;14.13;;;5.90;;
83807;SDS011;73824;40.292;17.998;2024-03-06T11:52:53;9.82;;;3.30;;
83807;SDS011;73824;40.292;17.998;2024-03-06T11:55:21;9.45;;;4.05;;
83807;SDS011;73824;40.292;17.998;2024-03-06T11:57:47;9.30;;;3.40;;
83807;SDS011;73824;40.292;17.998;2024-03-06T12:00:13;10.90;;;3.58;;
83807;SDS011;73824;40.292;17.998;2024-03-06T12:02:40;9.57;;;3.53;;
83807;SDS011;73824;40.292;17.998;2024-03-06T12:05:05;6.80;;;2.67;;
83807;SDS011;73824;40.292;17.998;2024-03-06T12:07:31;8.60;;;2.85;;
83807;SDS011;73824;40.292;17.998;2024-03-06T12:09:58;9.75;;;2.53;;
83807;SDS011;73824;40.292;17.998;2024-03-06T12:12:24;10.20;;;4.47;;
83807;SDS011;73824;40.292;17.998;2024-03-06T12:14:58;9.20;;;2.57;;
83807;SDS011;73824;40.292;17.998;2024-03-06T12:17:29;8.73;;;2.67;;
83807;SDS011;73824;40.292;17.998;2024-03-06T12:19:55;7.10;;;2.15;;
83807;SDS011;73824;40.292;17.998;2024-03-06T12:22:24;12.27;;;3.38;;
83807;SDS011;73824;40.292;17.998;2024-03-06T12:24:58;7.45;;;1.80;;
83807;SDS011;73824;40.292;17.998;2024-03-06T12:27:24;9.88;;;3.10;;
83807;SDS011;73824;40.292;17.998;2024-03-06T12:29:52;8.10;;;2.03;;
83807;SDS011;73824;40.292;17.998;2024-03-06T12:32:18;8.13;;;2.00;;
83807;SDS011;73824;40.292;17.998;2024-03-06T12:34:43;6.68;;;1.98;;
83807;SDS011;73824;40.292;17.998;2024-03-06T12:37:09;6.22;;;1.80;;
83807;SDS011;73824;40.292;17.998;2024-03-06T12:39:37;9.43;;;2.10;;
83807;SDS011;73824;40.292;17.998;2024-03-06T12:42:03;6.93;;;1.70;;
83807;SDS011;73824;40.292;17.998;2024-03-06T12:44:28;8.60;;;1.70;;
83807;SDS011;73824;40.292;17.998;2024-03-06T12:46:54;9.43;;;2.67;;
83807;SDS011;73824;40.292;17.998;2024-03-06T12:49:19;8.90;;;2.28;;
83807;SDS011;73824;40.292;17.998;2024-03-06T12:51:45;8.87;;;2.80;;
83807;SDS011;73824;40.292;17.998;2024-03-06T12:54:10;7.40;;;2.00;;
83807;SDS011;73824;40.292;17.998;2024-03-06T12:56:36;7.87;;;2.33;;
83807;SDS011;73824;40.292;17.998;2024-03-06T12:59:01;6.18;;;1.52;;
83807;SDS011;73824;40.292;17.998;2024-03-06T13:01:27;6.65;;;2.25;;
83807;SDS011;73824;40.292;17.998;2024-03-06T13:03:53;6.68;;;2.08;;
83807;SDS011;73824;40.292;17.998;2024-03-06T13:06:18;7.27;;;2.10;;
83807;SDS011;73824;40.292;17.998;2024-03-06T13:08:44;7.90;;;2.27;;
83807;SDS011;73824;40.292;17.998;2024-03-06T13:11:09;9.23;;;2.90;;
83807;SDS011;73824;40.292;17.998;2024-03-06T13:13:35;7.67;;;2.40;;
83807;SDS011;73824;40.292;17.998;2024-03-06T13:16:03;16.13;;;7.25;;
83807;SDS011;73824;40.292;17.998;2024-03-06T13:18:29;18.57;;;9.07;;
83807;SDS011;73824;40.292;17.998;2024-03-06T13:20:54;9.95;;;3.28;;
83807;SDS011;73824;40.292;17.998;2024-03-06T13:23:23;7.47;;;3.47;;
83807;SDS011;73824;40.292;17.998;2024-03-06T13:25:48;8.13;;;2.97;;
83807;SDS011;73824;40.292;17.998;2024-03-06T13:28:14;7.50;;;2.67;;
83807;SDS011;73824;40.292;17.998;2024-03-06T13:30:39;10.77;;;3.20;;
83807;SDS011;73824;40.292;17.998;2024-03-06T13:33:05;7.93;;;2.88;;
83807;SDS011;73824;40.292;17.998;2024-03-06T13:35:32;8.95;;;3.05;;
83807;SDS011;73824;40.292;17.998;2024-03-06T13:37:58;16.33;;;5.40;;
83807;SDS011;73824;40.292;17.998;2024-03-06T13:40:24;10.43;;;4.77;;
83807;SDS011;73824;40.292;17.998;2024-03-06T13:42:51;11.10;;;4.60;;
83807;SDS011;73824;40.292;17.998;2024-03-06T13:45:16;12.02;;;4.93;;
83807;SDS011;73824;40.292;17.998;2024-03-06T13:47:42;11.10;;;3.87;;
83807;SDS011;73824;40.292;17.998;2024-03-06T13:50:09;10.68;;;3.47;;
83807;SDS011;73824;40.292;17.998;2024-03-06T13:52:36;10.45;;;2.40;;
83807;SDS011;73824;40.292;17.998;2024-03-06T13:55:01;10.60;;;2.70;;
83807;SDS011;73824;40.292;17.998;2024-03-06T13:57:29;9.93;;;2.72;;
83807;SDS011;73824;40.292;17.998;2024-03-06T13:59:58;11.75;;;3.00;;
83807;SDS011;73824;40.292;17.998;2024-03-06T14:02:24;11.17;;;4.53;;
83807;SDS011;73824;40.292;17.998;2024-03-06T14:04:52;11.68;;;3.60;;
83807;SDS011;73824;40.292;17.998;2024-03-06T14:07:17;12.17;;;3.40;;
83807;SDS011;73824;40.292;17.998;2024-03-06T14:09:43;14.55;;;3.63;;
83807;SDS011;73824;40.292;17.998;2024-03-06T14:12:09;11.50;;;3.87;;
83807;SDS011;73824;40.292;17.998;2024-03-06T14:14:34;13.60;;;3.57;;
83807;SDS011;73824;40.292;17.998;2024-03-06T14:16:59;13.37;;;3.70;;
83807;SDS011;73824;40.292;17.998;2024-03-06T14:19:25;16.85;;;6.88;;
83807;SDS011;73824;40.292;17.998;2024-03-06T14:21:50;13.83;;;4.83;;
83807;SDS011;73824;40.292;17.998;2024-03-06T14:24:16;21.48;;;7.78;;
83807;SDS011;73824;40.292;17.998;2024-03-06T14:26:42;20.07;;;7.40;;
83807;SDS011;73824;40.292;17.998;2024-03-06T14:29:07;17.93;;;5.57;;